Time;durP1;ratioP1;P1;durP2;ratioP2;P2;SDS_P1;SDS_P2;PMS_P1;PMS_P2;Temp;Humidity;BMP_temperature;BMP_pressure;BME280_temperature;BME280_humidity;BME280_pressure;Samples;Min_cycle;Max_cycle;Signal;HPM_P1;HPM_P2
2021/04/02 00:01:08;;;;;;;47.10;24.97;;;11.90;99.90;;;;;;5079665;28;20184;-73
2021/04/02 00:03:36;;;;;;;51.23;26.87;;;11.90;99.90;;;;;;5078978;28;20188;-73
2021/04/02 00:06:04;;;;;;;54.20;26.97;;;11.90;99.90;;;;;;5081373;28;20448;-73
2021/04/02 00:08:30;;;;;;;45.73;26.17;;;11.80;99.90;;;;;;5080577;28;20434;-73
2021/04/02 00:10:58;;;;;;;45.00;25.50;;;11.80;99.90;;;;;;5080329;28;20514;-73
2021/04/02 00:13:27;;;;;;;49.00;26.40;;;11.80;99.90;;;;;;5080999;28;20446;-74
2021/04/02 00:15:54;;;;;;;41.07;25.30;;;11.70;99.90;;;;;;5082472;28;20485;-73
2021/04/02 00:18:21;;;;;;;49.07;25.43;;;11.70;99.90;;;;;;5078853;28;20470;-73
2021/04/02 00:20:47;;;;;;;50.40;26.60;;;11.60;99.90;;;;;;5081211;28;20437;-73
2021/04/02 00:23:13;;;;;;;49.83;26.60;;;11.60;99.90;;;;;;5078429;28;20814;-73
2021/04/02 00:25:39;;;;;;;52.50;27.87;;;11.50;99.90;;;;;;5078997;28;20426;-73
2021/04/02 00:28:06;;;;;;;51.07;26.20;;;11.50;99.90;;;;;;5081504;28;20434;-72
2021/04/02 00:30:44;;;;;;;52.70;27.23;;;11.50;99.90;;;;;;5081038;28;20425;-72
2021/04/02 00:33:10;;;;;;;47.17;26.50;;;11.50;99.90;;;;;;5080283;28;20458;-72
2021/04/02 00:35:37;;;;;;;42.30;24.10;;;11.50;99.90;;;;;;5082933;28;20435;-72
2021/04/02 00:38:04;;;;;;;52.60;25.73;;;11.40;99.90;;;;;;5079332;28;20454;-74
2021/04/02 00:40:33;;;;;;;53.30;26.43;;;11.30;99.90;;;;;;5080843;28;20420;-72
2021/04/02 00:42:59;;;;;;;44.53;25.77;;;11.20;99.90;;;;;;5080440;28;20468;-72
2021/04/02 00:45:25;;;;;;;47.37;26.20;;;11.10;99.90;;;;;;5081326;28;20429;-73
2021/04/02 00:47:52;;;;;;;51.50;28.87;;;11.00;99.90;;;;;;5082567;28;20499;-73
2021/04/02 00:50:23;;;;;;;55.30;26.97;;;10.90;99.90;;;;;;5079952;28;20216;-74
2021/04/02 00:52:49;;;;;;;51.70;28.57;;;10.80;99.90;;;;;;5080395;28;20457;-73
2021/04/02 00:55:15;;;;;;;54.40;28.90;;;10.80;99.90;;;;;;5078630;28;20438;-73
2021/04/02 00:57:41;;;;;;;57.87;28.80;;;10.70;99.90;;;;;;5077933;28;20213;-74
2021/04/02 01:00:09;;;;;;;55.17;28.50;;;10.60;99.90;;;;;;5086062;28;20438;-75
2021/04/02 01:02:35;;;;;;;56.53;27.90;;;10.50;99.90;;;;;;5080395;28;20180;-73
2021/04/02 01:05:06;;;;;;;46.40;27.67;;;10.50;99.90;;;;;;5079372;28;20813;-74
2021/04/02 01:07:32;;;;;;;56.60;29.90;;;10.40;99.90;;;;;;5079597;28;20414;-73
2021/04/02 01:09:57;;;;;;;48.40;29.00;;;10.40;99.90;;;;;;5076619;28;20437;-73
2021/04/02 01:12:23;;;;;;;48.10;27.73;;;10.30;99.90;;;;;;5079190;28;20172;-73
2021/04/02 01:14:48;;;;;;;52.40;28.43;;;10.30;99.90;;;;;;5081600;28;20235;-73
2021/04/02 01:17:15;;;;;;;47.80;29.70;;;10.30;99.90;;;;;;5080085;28;20176;-73
2021/04/02 01:19:44;;;;;;;56.93;31.30;;;10.20;99.90;;;;;;5082857;28;20306;-72
2021/04/02 01:22:18;;;;;;;54.00;30.87;;;10.20;99.90;;;;;;5080831;28;20440;-72
2021/04/02 01:25:04;;;;;;;56.43;27.53;;;10.10;99.90;;;;;;5085113;28;20453;-73
2021/04/02 01:27:55;;;;;;;53.17;28.70;;;10.00;99.90;;;;;;5085088;28;20425;-73
2021/04/02 01:30:22;;;;;;;47.23;29.70;;;10.00;99.90;;;;;;5079591;28;20438;-72
2021/04/02 01:32:51;;;;;;;57.13;28.30;;;10.00;99.90;;;;;;5085391;28;20477;-73
2021/04/02 01:35:23;;;;;;;56.13;29.73;;;9.90;99.90;;;;;;5083906;28;20445;-73
2021/04/02 01:37:53;;;;;;;67.90;29.53;;;9.80;99.90;;;;;;5083087;28;20579;-76
2021/04/02 01:40:22;;;;;;;50.57;29.80;;;9.80;99.90;;;;;;5082699;28;20445;-73
2021/04/02 01:42:48;;;;;;;52.90;28.97;;;9.70;99.90;;;;;;5082010;28;20703;-73
2021/04/02 01:45:16;;;;;;;55.07;28.43;;;9.70;99.90;;;;;;5081200;28;20426;-72
2021/04/02 01:47:42;;;;;;;52.80;29.27;;;9.70;99.90;;;;;;5081107;28;20453;-72
2021/04/02 01:50:13;;;;;;;48.50;28.07;;;9.70;99.90;;;;;;5083027;28;20508;-72
2021/04/02 01:52:40;;;;;;;46.80;27.10;;;9.60;99.90;;;;;;5082974;28;20218;-72
2021/04/02 01:55:08;;;;;;;50.83;29.00;;;9.60;99.90;;;;;;5082628;28;20433;-72
2021/04/02 01:57:34;;;;;;;50.80;28.27;;;9.50;99.90;;;;;;5083339;28;21019;-72
2021/04/02 02:00:01;;;;;;;49.27;27.90;;;9.50;99.90;;;;;;5083033;28;20419;-73
2021/04/02 02:02:28;;;;;;;63.33;31.07;;;9.40;99.90;;;;;;5081117;28;20441;-73
2021/04/02 02:04:55;;;;;;;58.13;30.77;;;9.30;99.90;;;;;;5082858;28;20417;-73
2021/04/02 02:07:22;;;;;;;48.73;29.00;;;9.20;99.90;;;;;;5079463;28;20973;-72
2021/04/02 02:09:50;;;;;;;48.17;28.90;;;9.20;99.90;;;;;;5084887;28;20469;-73
2021/04/02 02:12:18;;;;;;;50.77;28.73;;;9.10;99.90;;;;;;5082756;28;20793;-73
2021/04/02 02:14:49;;;;;;;49.90;27.87;;;9.10;99.90;;;;;;5081488;28;20415;-73
2021/04/02 02:17:20;;;;;;;51.87;28.93;;;9.00;99.90;;;;;;5081185;28;20804;-73
2021/04/02 02:19:47;;;;;;;54.07;29.10;;;8.90;99.90;;;;;;5082351;28;20869;-72
2021/04/02 02:22:14;;;;;;;53.73;29.53;;;8.90;99.90;;;;;;5080934;28;20589;-72
2021/04/02 02:24:40;;;;;;;51.23;29.53;;;9.00;99.90;;;;;;5067053;28;20470;-73
2021/04/02 02:27:08;;;;;;;55.40;28.87;;;9.00;99.90;;;;;;5080383;28;20498;-72
2021/04/02 02:29:35;;;;;;;51.13;26.00;;;8.90;99.90;;;;;;5084013;28;20437;-73
2021/04/02 02:32:02;;;;;;;43.17;25.10;;;9.00;99.90;;;;;;5098022;28;20421;-72
2021/04/02 02:34:27;;;;;;;57.17;27.10;;;8.90;99.90;;;;;;5082940;28;20459;-72
2021/04/02 02:36:53;;;;;;;43.80;24.80;;;8.90;99.90;;;;;;5079521;28;20876;-71
2021/04/02 02:39:20;;;;;;;44.70;24.10;;;8.80;99.90;;;;;;5083318;28;20304;-73
2021/04/02 02:41:46;;;;;;;57.00;28.30;;;8.80;99.90;;;;;;5078634;28;20471;-72
2021/04/02 02:44:12;;;;;;;48.27;25.90;;;8.70;99.90;;;;;;5080648;28;20486;-72
2021/04/02 02:46:38;;;;;;;47.50;25.70;;;8.70;99.90;;;;;;5081557;28;20261;-75
2021/04/02 02:49:14;;;;;;;43.63;25.40;;;8.70;99.90;;;;;;5081904;28;20510;-71
2021/04/02 02:51:41;;;;;;;53.20;26.80;;;8.60;99.90;;;;;;5082369;28;20429;-72
2021/04/02 02:54:11;;;;;;;46.30;25.30;;;8.50;99.90;;;;;;5080584;28;20437;-74
2021/04/02 02:56:38;;;;;;;55.67;25.93;;;8.50;99.90;;;;;;5082025;28;20442;-72
2021/04/02 02:59:07;;;;;;;50.87;25.57;;;8.50;99.90;;;;;;5081394;28;20495;-72
2021/04/02 03:01:35;;;;;;;57.70;27.70;;;8.40;99.90;;;;;;5079592;28;20440;-75
2021/04/02 03:04:02;;;;;;;51.33;26.47;;;8.40;99.90;;;;;;5081332;28;20498;-73
2021/04/02 03:06:32;;;;;;;42.27;25.60;;;8.40;99.90;;;;;;5080076;28;20433;-73
2021/04/02 03:09:00;;;;;;;47.80;23.83;;;8.40;99.90;;;;;;5084132;28;20929;-73
2021/04/02 03:11:26;;;;;;;49.73;23.80;;;8.40;99.90;;;;;;5080359;28;20453;-72
2021/04/02 03:13:54;;;;;;;43.03;24.20;;;8.30;99.90;;;;;;5078350;28;20531;-74
2021/04/02 03:16:22;;;;;;;43.40;22.30;;;8.20;99.90;;;;;;5081047;28;20448;-72
2021/04/02 03:18:52;;;;;;;45.13;26.07;;;8.20;99.90;;;;;;5079843;28;20465;-74
2021/04/02 03:21:19;;;;;;;49.67;23.93;;;8.10;99.90;;;;;;5079768;28;20442;-73
2021/04/02 03:23:45;;;;;;;44.03;24.07;;;8.10;99.90;;;;;;5079414;28;20480;-74
2021/04/02 03:26:13;;;;;;;41.03;21.87;;;8.10;99.90;;;;;;5080443;28;20446;-73
2021/04/02 03:28:42;;;;;;;40.47;22.73;;;8.10;99.90;;;;;;5080590;28;21163;-72
2021/04/02 03:31:08;;;;;;;36.67;22.50;;;8.00;99.90;;;;;;5080371;28;20506;-73
2021/04/02 03:33:38;;;;;;;40.17;21.50;;;8.00;99.90;;;;;;5081193;28;20568;-72
2021/04/02 03:36:11;;;;;;;33.00;18.90;;;8.00;99.90;;;;;;5077472;28;20553;-72
2021/04/02 03:38:39;;;;;;;30.33;18.80;;;8.00;99.90;;;;;;5080049;28;20540;-72
2021/04/02 03:41:11;;;;;;;37.60;15.90;;;8.10;99.90;;;;;;5079547;28;20469;-74
2021/04/02 03:43:38;;;;;;;23.37;14.13;;;8.00;99.90;;;;;;5078855;28;20457;-73
2021/04/02 03:46:04;;;;;;;28.87;11.23;;;8.10;99.90;;;;;;5081446;28;20425;-75
2021/04/02 03:48:36;;;;;;;18.20;10.17;;;8.10;99.90;;;;;;5077222;28;20436;-73
2021/04/02 03:51:05;;;;;;;17.50;8.90;;;8.10;99.90;;;;;;5081133;28;20446;-75
2021/04/02 03:53:34;;;;;;;15.00;9.07;;;8.10;99.90;;;;;;5081870;28;20489;-72
2021/04/02 03:56:03;;;;;;;13.57;8.20;;;8.10;99.90;;;;;;5081174;28;20448;-72
2021/04/02 03:58:30;;;;;;;13.57;7.17;;;8.00;99.90;;;;;;5078256;28;20527;-75
2021/04/02 04:01:09;;;;;;;11.60;6.60;;;8.00;99.90;;;;;;5080286;28;20495;-72
2021/04/02 04:03:38;;;;;;;8.93;6.07;;;8.00;99.90;;;;;;5083042;28;20459;-72
2021/04/02 04:06:06;;;;;;;13.30;6.03;;;7.90;99.90;;;;;;5081787;28;20436;-72
2021/04/02 04:08:33;;;;;;;9.00;5.40;;;7.90;99.90;;;;;;5079636;28;20427;-72
2021/04/02 04:11:00;;;;;;;11.93;5.33;;;7.80;99.90;;;;;;5079086;28;20815;-72
2021/04/02 04:13:27;;;;;;;5.47;4.00;;;7.80;99.90;;;;;;5079518;28;20539;-73
2021/04/02 04:15:55;;;;;;;10.20;4.90;;;7.80;99.90;;;;;;5082588;28;20452;-72
2021/04/02 04:18:21;;;;;;;8.70;4.33;;;7.70;99.90;;;;;;5079189;28;20549;-73
2021/04/02 04:20:49;;;;;;;8.10;4.03;;;7.70;99.90;;;;;;5078171;28;20439;-73
2021/04/02 04:23:17;;;;;;;5.77;4.70;;;7.70;99.90;;;;;;5077372;28;20475;-73
2021/04/02 04:25:44;;;;;;;13.70;3.63;;;7.60;99.90;;;;;;5079099;28;20442;-73
2021/04/02 04:28:15;;;;;;;3.80;2.77;;;7.60;99.90;;;;;;5080166;28;20465;-72
2021/04/02 04:30:41;;;;;;;5.37;3.50;;;7.60;99.90;;;;;;5080511;28;20454;-74
2021/04/02 04:33:08;;;;;;;7.60;3.60;;;7.50;99.90;;;;;;5079472;28;20442;-72
2021/04/02 04:35:34;;;;;;;2.33;2.20;;;7.40;99.90;;;;;;5079692;28;20448;-73
2021/04/02 04:38:05;;;;;;;4.90;2.70;;;7.40;99.90;;;;;;5077097;28;20466;-73
2021/04/02 04:40:32;;;;;;;4.20;2.90;;;7.30;99.90;;;;;;5079767;28;20441;-73
2021/04/02 04:42:59;;;;;;;3.70;2.50;;;7.30;99.90;;;;;;5079374;28;20452;-72
2021/04/02 04:45:26;;;;;;;5.77;2.90;;;7.20;99.90;;;;;;5078357;28;20808;-72
2021/04/02 04:47:51;;;;;;;4.97;2.50;;;7.20;99.90;;;;;;5080807;28;20444;-74
2021/04/02 04:50:18;;;;;;;5.97;3.30;;;7.20;99.90;;;;;;5089028;28;20435;-72
2021/04/02 04:52:53;;;;;;;5.97;2.70;;;7.20;99.90;;;;;;5082772;28;20285;-72
2021/04/02 04:55:20;;;;;;;2.33;1.90;;;7.10;99.90;;;;;;5082582;28;20457;-72
2021/04/02 04:57:49;;;;;;;5.83;2.60;;;7.10;99.90;;;;;;5083183;28;21004;-72
2021/04/02 05:00:17;;;;;;;2.37;2.17;;;7.10;99.90;;;;;;5082332;28;20411;-70
2021/04/02 05:02:45;;;;;;;2.40;1.67;;;7.00;99.90;;;;;;5084219;28;20828;-71
2021/04/02 05:05:19;;;;;;;3.93;2.10;;;7.00;99.90;;;;;;5085204;28;20419;-72
2021/04/02 05:07:47;;;;;;;2.10;1.90;;;7.00;99.90;;;;;;5082842;28;20479;-73
2021/04/02 05:10:13;;;;;;;4.23;1.47;;;7.00;99.90;;;;;;5082434;28;20507;-71
2021/04/02 05:12:40;;;;;;;2.80;2.37;;;7.00;99.90;;;;;;5083146;28;20457;-72
2021/04/02 05:15:07;;;;;;;8.30;5.53;;;7.00;99.90;;;;;;5083378;28;20445;-71
2021/04/02 05:17:34;;;;;;;4.97;2.80;;;7.00;99.90;;;;;;5081697;28;20441;-71
2021/04/02 05:20:01;;;;;;;3.63;1.70;;;7.00;99.90;;;;;;5083574;28;20434;-71
2021/04/02 05:22:26;;;;;;;6.73;2.33;;;7.00;99.90;;;;;;5080197;28;20970;-71
2021/04/02 05:24:52;;;;;;;2.67;2.17;;;7.00;99.90;;;;;;5084974;28;20465;-70
2021/04/02 05:27:17;;;;;;;4.27;2.63;;;7.00;99.90;;;;;;5081846;28;20197;-72
2021/04/02 05:29:43;;;;;;;7.33;2.50;;;7.10;99.90;;;;;;5084847;28;20187;-71
2021/04/02 05:32:09;;;;;;;4.43;2.03;;;7.10;99.90;;;;;;5084494;28;20199;-69
2021/04/02 05:34:34;;;;;;;3.83;2.93;;;7.10;99.90;;;;;;5084339;28;20214;-72
2021/04/02 05:37:00;;;;;;;8.33;3.00;;;7.10;99.90;;;;;;5082784;28;20197;-71
2021/04/02 05:39:25;;;;;;;3.27;2.73;;;7.20;99.90;;;;;;5083527;28;20210;-71
2021/04/02 05:41:56;;;;;;;5.23;3.30;;;7.30;99.90;;;;;;5084952;28;20214;-71
2021/04/02 05:44:33;;;;;;;7.10;3.50;;;7.40;99.90;;;;;;5080359;28;20251;-71
2021/04/02 05:47:04;;;;;;;3.77;3.47;;;7.40;99.90;;;;;;5086306;28;20435;-71
2021/04/02 05:49:30;;;;;;;4.37;2.70;;;7.60;99.90;;;;;;5087292;28;20445;-71
2021/04/02 05:52:00;;;;;;;3.57;2.83;;;7.80;99.90;;;;;;5085060;28;20943;-70
2021/04/02 05:54:36;;;;;;;3.57;2.87;;;8.00;99.90;;;;;;5081009;28;20487;-70
2021/04/02 05:57:02;;;;;;;5.37;3.23;;;8.20;99.90;;;;;;5085135;28;20471;-71
2021/04/02 05:59:27;;;;;;;8.37;4.00;;;8.40;99.90;;;;;;5089991;28;20494;-71
2021/04/02 06:01:54;;;;;;;4.60;3.00;;;8.30;99.90;;;;;;5079141;28;20496;-71
2021/04/02 06:04:20;;;;;;;8.20;3.60;;;8.50;99.90;;;;;;5084231;28;20945;-71
2021/04/02 06:06:46;;;;;;;3.37;3.07;;;8.50;99.90;;;;;;5081487;28;20452;-71
2021/04/02 06:09:12;;;;;;;5.23;3.30;;;8.70;99.90;;;;;;5084139;28;20242;-71
2021/04/02 06:11:38;;;;;;;9.13;4.00;;;9.40;99.90;;;;;;5082431;28;20446;-72
2021/04/02 06:14:04;;;;;;;7.27;3.57;;;9.70;99.90;;;;;;5080815;28;20487;-72
2021/04/02 06:16:29;;;;;;;8.57;3.53;;;9.60;99.90;;;;;;5083251;28;20728;-70
2021/04/02 06:18:57;;;;;;;6.00;3.20;;;9.50;99.90;;;;;;5083415;28;20211;-72
2021/04/02 06:21:26;;;;;;;7.30;3.40;;;10.60;99.90;;;;;;5079601;28;20193;-72
2021/04/02 06:23:52;;;;;;;9.57;4.07;;;12.10;99.90;;;;;;5082496;28;20974;-72
2021/04/02 06:26:17;;;;;;;4.27;3.50;;;13.90;99.90;;;;;;5091974;28;20555;-72
2021/04/02 06:28:43;;;;;;;5.27;3.40;;;15.40;99.90;;;;;;5080876;28;20526;-72
2021/04/02 06:31:13;;;;;;;9.57;4.47;;;16.80;99.90;;;;;;5081388;28;20194;-72
2021/04/02 06:33:56;;;;;;;8.13;3.40;;;17.70;99.90;;;;;;5083388;28;20197;-73
2021/04/02 06:36:28;;;;;;;3.50;3.20;;;18.00;99.90;;;;;;5078457;28;20955;-70
2021/04/02 06:38:57;;;;;;;5.40;3.90;;;18.60;99.90;;;;;;5083749;28;21004;-70
2021/04/02 06:41:24;;;;;;;7.27;3.47;;;19.10;99.90;;;;;;5080846;28;20981;-70
2021/04/02 06:43:54;;;;;;;7.40;3.57;;;19.60;99.90;;;;;;5079874;28;20574;-71
2021/04/02 06:46:24;;;;;;;8.30;3.67;;;19.70;99.00;;;;;;5080441;28;21044;-70
2021/04/02 06:48:51;;;;;;;4.03;3.10;;;20.00;98.20;;;;;;5077352;28;20439;-70
2021/04/02 06:51:18;;;;;;;3.33;3.00;;;20.10;97.70;;;;;;5081025;28;20472;-70
2021/04/02 06:53:50;;;;;;;4.63;3.40;;;20.00;97.00;;;;;;5083853;28;20458;-70
2021/04/02 06:56:17;;;;;;;9.33;6.73;;;19.80;96.00;;;;;;5081605;28;20465;-69
2021/04/02 06:58:44;;;;;;;10.13;4.93;;;19.30;96.30;;;;;;5080214;28;20470;-69
2021/04/02 07:01:13;;;;;;;6.10;4.07;;;18.60;97.50;;;;;;5080003;28;20445;-68
2021/04/02 07:03:41;;;;;;;6.80;5.20;;;18.20;98.00;;;;;;5086051;28;20474;-66
2021/04/02 07:06:07;;;;;;;4.73;4.13;;;17.80;98.70;;;;;;5083914;28;20466;-68
2021/04/02 07:08:33;;;;;;;7.30;4.40;;;17.20;98.00;;;;;;5083833;28;20966;-68
2021/04/02 07:11:00;;;;;;;6.00;4.40;;;17.00;99.10;;;;;;5075762;28;20274;-68
2021/04/02 07:13:31;;;;;;;9.80;5.70;;;16.80;98.90;;;;;;5083808;28;20579;-68
2021/04/02 07:15:57;;;;;;;11.87;4.93;;;16.70;98.80;;;;;;5084146;28;20525;-67
2021/04/02 07:18:24;;;;;;;8.27;5.23;;;16.50;99.90;;;;;;5084579;28;20469;-67
2021/04/02 07:20:50;;;;;;;7.23;5.70;;;16.40;99.60;;;;;;5080709;28;20474;-70
2021/04/02 07:23:16;;;;;;;8.17;5.10;;;15.90;99.90;;;;;;5083303;28;20492;-70
2021/04/02 07:25:43;;;;;;;6.00;5.40;;;16.00;99.90;;;;;;5085994;28;20465;-71
2021/04/02 07:28:09;;;;;;;6.50;5.10;;;15.90;99.90;;;;;;5076541;28;20447;-71
2021/04/02 07:30:36;;;;;;;8.20;5.93;;;16.10;99.90;;;;;;5085723;28;20488;-70
2021/04/02 07:33:06;;;;;;;6.23;5.00;;;16.20;99.90;;;;;;5088491;28;20488;-70
2021/04/02 07:35:31;;;;;;;6.03;5.40;;;16.00;99.60;;;;;;5084076;28;20442;-71
2021/04/02 07:37:58;;;;;;;6.80;5.70;;;16.00;99.90;;;;;;5080595;28;20484;-70
2021/04/02 07:40:31;;;;;;;7.30;6.20;;;16.00;99.90;;;;;;5079432;28;20188;-70
2021/04/02 07:43:00;;;;;;;8.67;6.63;;;16.00;99.90;;;;;;5086715;28;20461;-70
2021/04/02 07:45:34;;;;;;;6.93;5.70;;;16.00;99.90;;;;;;5084809;28;20433;-72
2021/04/02 07:48:11;;;;;;;7.17;6.00;;;16.00;99.90;;;;;;5080999;28;20453;-71
2021/04/02 07:50:46;;;;;;;7.37;6.60;;;15.60;99.90;;;;;;5087309;28;20944;-70
2021/04/02 07:53:13;;;;;;;7.77;6.20;;;15.90;99.90;;;;;;5078751;28;20483;-72
2021/04/02 07:55:47;;;;;;;9.20;6.47;;;16.00;99.90;;;;;;5086028;28;20794;-70
2021/04/02 07:58:21;;;;;;;10.33;7.50;;;16.10;99.90;;;;;;5079627;28;20465;-72
2021/04/02 08:00:52;;;;;;;7.17;6.47;;;16.20;99.90;;;;;;5079227;28;20443;-71
2021/04/02 08:03:17;;;;;;;6.97;6.27;;;16.30;99.90;;;;;;5075536;28;20470;-71
2021/04/02 08:05:58;;;;;;;12.17;6.30;;;16.70;99.90;;;;;;5091643;28;20428;-71
2021/04/02 08:08:25;;;;;;;8.30;6.43;;;16.60;99.90;;;;;;5090339;28;20211;-71
2021/04/02 08:11:19;;;;;;;9.20;6.20;;;16.80;99.90;;;;;;5085842;28;20432;-70
2021/04/02 08:13:50;;;;;;;8.63;6.43;;;16.90;99.90;;;;;;5087783;28;20515;-70
2021/04/02 08:16:31;;;;;;;7.23;6.20;;;17.20;99.90;;;;;;5081108;28;20423;-72
2021/04/02 08:19:24;;;;;;;7.60;6.90;;;16.90;99.90;;;;;;5079435;28;20565;-71
2021/04/02 08:21:54;;;;;;;11.10;7.03;;;17.10;99.90;;;;;;5088143;28;20792;-72
2021/04/02 08:24:27;;;;;;;8.50;6.10;;;17.20;99.70;;;;;;5080870;28;20515;-72
2021/04/02 08:26:54;;;;;;;9.50;7.73;;;17.20;99.00;;;;;;5096490;28;20496;-72
2021/04/02 08:29:23;;;;;;;11.47;7.20;;;17.00;99.40;;;;;;5094073;28;20858;-71
2021/04/02 08:31:51;;;;;;;9.20;8.30;;;17.10;99.30;;;;;;5080514;28;20430;-72
2021/04/02 08:34:20;;;;;;;7.97;6.53;;;17.10;99.90;;;;;;5083102;28;20458;-71
2021/04/02 08:36:47;;;;;;;9.73;7.90;;;17.10;99.90;;;;;;5088740;28;20436;-71
2021/04/02 08:39:14;;;;;;;8.13;7.33;;;17.10;99.60;;;;;;5082380;28;20535;-71
2021/04/02 08:41:40;;;;;;;9.47;6.70;;;17.30;99.20;;;;;;5092842;28;20470;-71
2021/04/02 08:44:06;;;;;;;8.00;7.20;;;17.40;99.50;;;;;;5082464;28;20502;-70
2021/04/02 08:46:32;;;;;;;10.30;8.50;;;17.50;98.80;;;;;;5094468;28;20168;-70
2021/04/02 08:48:58;;;;;;;9.73;7.63;;;17.30;98.80;;;;;;5082832;28;20541;-69
2021/04/02 08:51:23;;;;;;;10.27;8.20;;;17.50;99.90;;;;;;5088500;28;20897;-71
2021/04/02 08:53:49;;;;;;;9.30;7.80;;;17.50;99.90;;;;;;5104034;28;20255;-70
2021/04/02 08:56:20;;;;;;;9.87;7.40;;;17.80;99.10;;;;;;5090474;28;20561;-70
2021/04/02 08:58:47;;;;;;;9.27;7.30;;;17.90;99.90;;;;;;5094784;28;20618;-73
2021/04/02 09:01:15;;;;;;;12.90;8.43;;;18.10;98.70;;;;;;5086514;28;20480;-70
2021/04/02 09:03:41;;;;;;;8.97;7.50;;;18.20;98.30;;;;;;5092754;28;20437;-71
2021/04/02 09:06:08;;;;;;;12.90;9.13;;;18.30;97.70;;;;;;5084608;28;20522;-70
2021/04/02 09:08:35;;;;;;;10.80;8.47;;;18.10;99.00;;;;;;5089571;28;20421;-70
2021/04/02 09:11:01;;;;;;;12.43;9.40;;;18.00;99.00;;;;;;5087569;28;20511;-72
2021/04/02 09:13:37;;;;;;;9.10;8.27;;;17.50;97.70;;;;;;5083783;28;20247;-69
2021/04/02 09:16:11;;;;;;;13.23;9.70;;;16.90;98.40;;;;;;5084952;28;20434;-70
2021/04/02 09:18:52;;;;;;;13.20;9.07;;;16.80;99.50;;;;;;5080469;28;20485;-72
2021/04/02 09:21:19;;;;;;;10.50;8.40;;;17.30;99.90;;;;;;5088469;28;20426;-71
2021/04/02 09:23:52;;;;;;;9.50;7.73;;;17.80;99.30;;;;;;5088440;28;20465;-69
2021/04/02 09:26:18;;;;;;;8.97;8.10;;;17.40;99.00;;;;;;5082802;28;20415;-70
2021/04/02 09:28:45;;;;;;;13.50;8.53;;;17.40;98.90;;;;;;5082132;28;20430;-71
2021/04/02 09:31:28;;;;;;;12.23;9.47;;;17.10;98.60;;;;;;5084777;28;20573;-70
2021/04/02 09:33:59;;;;;;;10.80;9.80;;;17.40;99.00;;;;;;5081183;28;20466;-72
2021/04/02 09:36:30;;;;;;;10.83;8.97;;;17.20;99.40;;;;;;5086326;28;20431;-71
2021/04/02 09:39:25;;;;;;;12.50;9.30;;;16.60;98.50;;;;;;5090334;28;20472;-70
2021/04/02 09:41:52;;;;;;;12.03;8.77;;;15.90;99.90;;;;;;5081942;28;20419;-71
2021/04/02 09:44:25;;;;;;;9.30;8.40;;;15.80;99.90;;;;;;5081180;28;20458;-70
2021/04/02 09:46:59;;;;;;;11.57;8.90;;;16.20;99.90;;;;;;5080533;28;20467;-69
2021/04/02 09:49:25;;;;;;;10.17;7.83;;;15.90;99.90;;;;;;5082353;28;20447;-71
2021/04/02 09:51:55;;;;;;;9.97;8.97;;;16.60;99.90;;;;;;5088240;28;20451;-70
2021/04/02 09:54:24;;;;;;;12.10;9.90;;;16.80;99.90;;;;;;5088258;28;20295;-72
2021/04/02 09:56:50;;;;;;;12.30;9.40;;;16.80;99.20;;;;;;5087846;28;20433;-73
2021/04/02 09:59:16;;;;;;;8.83;7.97;;;16.40;98.50;;;;;;5087636;28;20467;-70
2021/04/02 10:01:43;;;;;;;10.60;8.00;;;15.50;99.70;;;;;;5084467;28;20425;-70
2021/04/02 10:04:10;;;;;;;10.17;8.90;;;15.40;99.90;;;;;;5082174;28;20511;-71
2021/04/02 10:06:37;;;;;;;10.83;9.00;;;15.40;99.90;;;;;;5083179;28;20505;-69
2021/04/02 10:09:05;;;;;;;10.63;8.07;;;16.00;99.90;;;;;;5089570;28;20425;-70
2021/04/02 10:11:32;;;;;;;9.73;8.80;;;16.70;99.90;;;;;;5083634;28;20446;-70
2021/04/02 10:13:58;;;;;;;10.60;9.00;;;17.40;99.20;;;;;;5083234;28;20449;-71
2021/04/02 10:16:24;;;;;;;10.20;8.67;;;18.10;97.60;;;;;;5082016;28;20449;-70
2021/04/02 10:18:51;;;;;;;8.80;7.90;;;18.50;97.90;;;;;;5084422;28;20207;-70
2021/04/02 10:21:21;;;;;;;9.53;8.63;;;18.80;95.70;;;;;;5085307;28;20461;-70
2021/04/02 10:23:47;;;;;;;10.53;8.30;;;19.10;96.00;;;;;;5099047;28;21190;-70
2021/04/02 10:26:14;;;;;;;8.30;6.97;;;19.10;96.20;;;;;;5091956;28;20460;-72
2021/04/02 10:28:40;;;;;;;12.33;8.57;;;18.80;96.10;;;;;;5079946;28;20439;-71
2021/04/02 10:31:06;;;;;;;12.80;8.27;;;18.80;95.40;;;;;;5094976;28;20457;-72
2021/04/02 10:33:32;;;;;;;11.33;8.70;;;19.10;95.90;;;;;;5088852;28;20208;-72
2021/04/02 10:35:58;;;;;;;10.33;8.87;;;19.50;95.80;;;;;;5080746;28;20527;-73
2021/04/02 10:38:24;;;;;;;11.37;7.80;;;19.50;94.30;;;;;;5086683;28;20994;-70
2021/04/02 10:40:50;;;;;;;10.70;7.80;;;19.00;94.20;;;;;;5091752;28;20461;-71
2021/04/02 10:43:15;;;;;;;9.33;8.43;;;18.30;94.70;;;;;;5083139;28;20241;-70
2021/04/02 10:45:41;;;;;;;10.73;7.53;;;18.40;95.90;;;;;;5092838;28;20411;-70
2021/04/02 10:48:07;;;;;;;13.67;9.70;;;18.90;94.70;;;;;;5087652;28;20191;-70
2021/04/02 10:50:33;;;;;;;9.40;8.50;;;19.00;93.20;;;;;;5094382;28;20181;-71
2021/04/02 10:52:59;;;;;;;12.20;8.03;;;18.80;94.70;;;;;;5080839;28;20492;-72
2021/04/02 10:55:25;;;;;;;11.73;8.70;;;18.20;95.30;;;;;;5083502;28;20413;-71
2021/04/02 10:57:51;;;;;;;9.37;8.47;;;18.30;96.10;;;;;;5083124;28;20183;-70
2021/04/02 11:00:18;;;;;;;8.50;7.70;;;18.30;93.50;;;;;;5093458;28;20191;-70
2021/04/02 11:02:44;;;;;;;9.07;8.17;;;18.30;94.10;;;;;;5080040;28;20709;-70
2021/04/02 11:05:10;;;;;;;8.93;8.03;;;18.10;94.10;;;;;;5080744;28;20473;-72
2021/04/02 11:07:37;;;;;;;7.83;7.13;;;18.10;93.90;;;;;;5078684;28;20183;-71
2021/04/02 11:10:07;;;;;;;9.63;7.50;;;17.90;93.60;;;;;;5080664;28;20435;-71
2021/04/02 11:12:33;;;;;;;8.80;8.00;;;17.60;94.90;;;;;;5081514;28;20943;-71
2021/04/02 11:14:59;;;;;;;7.93;7.13;;;17.60;94.80;;;;;;5085563;28;20437;-71
2021/04/02 11:17:25;;;;;;;9.20;7.43;;;17.20;96.10;;;;;;5097887;28;20426;-71
2021/04/02 11:19:53;;;;;;;8.17;7.07;;;17.30;96.50;;;;;;5082462;28;20269;-71
2021/04/02 11:22:19;;;;;;;8.63;7.60;;;17.50;95.90;;;;;;5078906;28;20960;-72
2021/04/02 11:24:45;;;;;;;8.70;7.87;;;17.80;95.80;;;;;;5089900;28;20495;-73
2021/04/02 11:27:11;;;;;;;7.70;6.93;;;18.00;95.40;;;;;;5097871;28;20252;-71
2021/04/02 11:29:37;;;;;;;7.97;6.30;;;17.80;95.00;;;;;;5096281;28;20417;-71
2021/04/02 11:32:07;;;;;;;7.13;6.43;;;17.70;95.30;;;;;;5082977;28;20191;-71
2021/04/02 11:34:32;;;;;;;6.87;6.30;;;17.70;94.40;;;;;;5095093;28;20462;-70
2021/04/02 11:36:59;;;;;;;9.37;6.47;;;18.00;94.60;;;;;;5084920;28;20484;-71
2021/04/02 11:39:25;;;;;;;7.77;7.10;;;17.80;94.00;;;;;;5095268;28;20214;-70
2021/04/02 11:41:50;;;;;;;8.40;7.60;;;17.60;94.90;;;;;;5085730;28;20443;-69
2021/04/02 11:44:16;;;;;;;7.40;6.63;;;17.40;94.80;;;;;;5081492;28;20465;-70
2021/04/02 11:46:42;;;;;;;6.10;5.60;;;17.20;94.60;;;;;;5094079;28;20179;-73
2021/04/02 11:49:07;;;;;;;7.03;5.97;;;17.30;95.50;;;;;;5088052;28;20684;-71
2021/04/02 11:51:33;;;;;;;8.03;5.80;;;17.40;94.80;;;;;;5091573;28;20275;-71
2021/04/02 11:53:59;;;;;;;6.70;5.67;;;17.60;94.90;;;;;;5093745;28;20624;-72
2021/04/02 11:56:24;;;;;;;5.70;5.20;;;17.30;93.80;;;;;;5082122;28;20425;-70
2021/04/02 11:58:50;;;;;;;5.50;5.00;;;17.10;94.30;;;;;;5090081;28;20680;-71
2021/04/02 12:01:15;;;;;;;6.63;6.03;;;16.80;93.90;;;;;;5086010;28;20176;-71
2021/04/02 12:03:41;;;;;;;6.70;5.87;;;17.00;95.00;;;;;;5078114;28;20283;-70
2021/04/02 12:06:07;;;;;;;7.73;6.10;;;17.00;94.70;;;;;;5084196;28;20183;-71
2021/04/02 12:08:32;;;;;;;5.60;5.10;;;17.10;94.40;;;;;;5079311;28;20195;-71
2021/04/02 12:10:58;;;;;;;5.90;5.30;;;16.80;94.30;;;;;;5086523;28;20189;-70
2021/04/02 12:13:23;;;;;;;6.27;5.67;;;16.40;93.60;;;;;;5090674;28;20570;-72
2021/04/02 12:15:49;;;;;;;10.70;6.63;;;16.30;94.20;;;;;;5084075;28;20657;-71
2021/04/02 12:18:15;;;;;;;6.17;4.90;;;16.30;94.50;;;;;;5082110;28;20206;-70
2021/04/02 12:20:40;;;;;;;6.43;5.40;;;16.30;94.20;;;;;;5077294;28;20210;-71
2021/04/02 12:23:06;;;;;;;7.30;5.27;;;16.40;94.00;;;;;;5076674;28;20840;-71
2021/04/02 12:25:32;;;;;;;5.47;4.53;;;16.40;94.10;;;;;;5086074;28;20324;-70
2021/04/02 12:27:58;;;;;;;5.57;5.07;;;16.40;94.80;;;;;;5091287;28;20183;-72
2021/04/02 12:30:24;;;;;;;6.37;5.77;;;16.60;94.00;;;;;;5092835;28;20528;-70
2021/04/02 12:32:49;;;;;;;5.70;5.20;;;16.60;95.30;;;;;;5092946;28;20221;-70
2021/04/02 12:35:15;;;;;;;6.60;5.00;;;16.50;94.40;;;;;;5087655;28;20182;-70
2021/04/02 12:37:41;;;;;;;6.47;5.30;;;16.20;94.10;;;;;;5091966;28;20263;-70
2021/04/02 12:40:13;;;;;;;9.73;4.67;;;16.30;94.70;;;;;;5090250;28;20200;-71
2021/04/02 12:42:38;;;;;;;5.63;5.10;;;16.20;94.60;;;;;;5084882;28;20516;-70
2021/04/02 12:45:06;;;;;;;4.77;4.37;;;16.20;95.00;;;;;;5084805;28;20506;-71
2021/04/02 12:47:31;;;;;;;5.33;4.80;;;16.30;95.30;;;;;;5081502;28;20187;-70